createdAt,value
2019-03-28T00:01:19.984Z,16.17
2019-03-28T00:03:50.711Z,16.60
2019-03-28T00:06:21.441Z,15.23
2019-03-28T00:08:52.143Z,16.33
2019-03-28T00:11:23.062Z,17.27
2019-03-28T00:13:53.787Z,16.20
2019-03-28T00:16:24.639Z,16.07
2019-03-28T00:18:57.465Z,16.53
2019-03-28T00:21:27.951Z,16.23
2019-03-28T00:24:06.311Z,16.60
2019-03-28T00:26:37.108Z,14.80
2019-03-28T00:29:07.982Z,16.03
2019-03-28T00:31:38.796Z,14.90
2019-03-28T00:34:10.191Z,17.37
2019-03-28T00:36:41.174Z,17.13
2019-03-28T00:39:11.886Z,16.20
2019-03-28T00:41:42.695Z,15.10
2019-03-28T00:44:13.402Z,18.10
2019-03-28T00:46:44.158Z,18.13
2019-03-28T00:49:14.870Z,17.10
2019-03-28T00:51:45.737Z,17.27
2019-03-28T00:54:16.429Z,18.87
2019-03-28T00:56:47.738Z,21.30
2019-03-28T00:59:18.504Z,17.50
2019-03-28T01:01:49.345Z,19.70
2019-03-28T01:04:20.486Z,20.10
2019-03-28T01:06:51.196Z,18.27
2019-03-28T01:09:21.878Z,17.00
2019-03-28T01:11:52.615Z,18.43
2019-03-28T01:14:23.440Z,16.87
2019-03-28T01:16:54.154Z,17.70
2019-03-28T01:19:24.887Z,18.37
2019-03-28T01:21:55.607Z,17.40
2019-03-28T01:24:26.318Z,16.80
2019-03-28T01:26:58.750Z,21.27
2019-03-28T01:29:29.586Z,17.17
2019-03-28T01:32:00.390Z,18.77
2019-03-28T01:34:31.235Z,20.37
2019-03-28T01:37:01.949Z,18.10
2019-03-28T01:39:32.671Z,17.77
2019-03-28T01:42:03.398Z,17.70
2019-03-28T01:44:34.125Z,18.07
2019-03-28T01:47:04.864Z,18.47
2019-03-28T01:49:35.554Z,22.07
2019-03-28T01:52:06.276Z,17.57
2019-03-28T01:54:37.063Z,19.60
2019-03-28T01:57:11.352Z,15.47
2019-03-28T01:59:40.277Z,17.43
2019-03-28T02:02:10.984Z,19.77
2019-03-28T02:04:41.691Z,19.93
2019-03-28T02:07:12.431Z,18.57
2019-03-28T02:09:43.263Z,16.77
2019-03-28T02:12:14.018Z,18.67
2019-03-28T02:14:44.753Z,18.80
2019-03-28T02:17:15.498Z,17.70
2019-03-28T02:19:46.218Z,17.67
2019-03-28T02:22:17.328Z,16.80
2019-03-28T02:24:48.022Z,16.87
2019-03-28T02:27:23.891Z,16.97
2019-03-28T02:29:51.052Z,16.93
2019-03-28T02:32:21.981Z,17.57
2019-03-28T02:34:52.627Z,18.87
2019-03-28T02:37:23.405Z,18.33
2019-03-28T02:39:54.118Z,16.20
2019-03-28T02:42:24.859Z,16.27
2019-03-28T02:44:55.549Z,18.80
2019-03-28T02:47:26.344Z,20.47
2019-03-28T02:49:57.082Z,18.60
2019-03-28T02:52:27.824Z,18.67
2019-03-28T02:54:58.529Z,16.33
2019-03-28T02:57:40.866Z,18.43
2019-03-28T03:00:01.879Z,18.00
2019-03-28T03:02:32.740Z,17.50
2019-03-28T03:05:03.419Z,19.73
2019-03-28T03:07:34.235Z,17.43
2019-03-28T03:10:05.949Z,20.80
2019-03-28T03:12:36.835Z,19.07
2019-03-28T03:15:08.059Z,16.53
2019-03-28T03:17:38.819Z,15.70
2019-03-28T03:20:10.032Z,17.60
2019-03-28T03:22:40.798Z,16.97
2019-03-28T03:25:12.119Z,17.87
2019-03-28T03:27:57.124Z,16.63
2019-03-28T03:30:15.434Z,17.47
2019-03-28T03:32:46.702Z,19.13
2019-03-28T03:35:17.391Z,18.70
2019-03-28T03:37:48.171Z,18.47
2019-03-28T03:40:18.955Z,17.53
2019-03-28T03:42:50.016Z,17.23
2019-03-28T03:45:20.978Z,16.67
2019-03-28T03:47:51.739Z,21.37
2019-03-28T03:50:30.053Z,19.93
2019-03-28T03:53:00.800Z,19.63
2019-03-28T03:55:31.524Z,18.63
2019-03-28T03:58:15.531Z,18.57
2019-03-28T04:00:36.603Z,16.97
2019-03-28T04:03:07.635Z,17.23
2019-03-28T04:05:38.854Z,18.67
2019-03-28T04:08:09.728Z,20.50
2019-03-28T04:10:40.484Z,18.03
2019-03-28T04:13:11.348Z,18.40
2019-03-28T04:15:42.118Z,18.20
2019-03-28T04:18:13.768Z,21.93
2019-03-28T04:20:44.740Z,20.20
2019-03-28T04:23:15.536Z,20.83
2019-03-28T04:25:46.237Z,18.37
2019-03-28T04:28:30.690Z,22.60
2019-03-28T04:30:49.735Z,17.60
2019-03-28T04:33:22.238Z,19.47
2019-03-28T04:35:52.914Z,18.30
2019-03-28T04:38:24.554Z,21.60
2019-03-28T04:40:55.379Z,19.67
2019-03-28T04:43:26.094Z,20.53
2019-03-28T04:45:56.788Z,20.13
2019-03-28T04:48:27.510Z,22.10
2019-03-28T04:50:58.414Z,22.30
2019-03-28T04:53:29.692Z,22.27
2019-03-28T04:56:00.725Z,19.13
2019-03-28T04:58:43.826Z,20.37
2019-03-28T05:01:03.899Z,21.50
2019-03-28T05:03:34.614Z,23.40
2019-03-28T05:06:05.387Z,23.10
2019-03-28T05:08:37.881Z,19.10
2019-03-28T05:11:08.626Z,20.03
2019-03-28T05:13:39.334Z,23.87
2019-03-28T05:16:10.065Z,21.87
2019-03-28T05:18:40.952Z,24.27
2019-03-28T05:21:11.809Z,26.00
2019-03-28T05:23:42.531Z,26.20
2019-03-28T05:26:13.240Z,26.27
2019-03-28T05:28:56.637Z,25.73
2019-03-28T05:31:16.315Z,24.43
2019-03-28T05:33:47.127Z,26.07
2019-03-28T05:36:18.444Z,23.83
2019-03-28T05:38:49.251Z,24.83
2019-03-28T05:41:20.047Z,23.60
2019-03-28T05:43:50.926Z,27.80
2019-03-28T05:46:21.581Z,30.03
2019-03-28T05:48:52.358Z,30.17
2019-03-28T05:51:23.621Z,31.57
2019-03-28T05:53:56.412Z,30.57
2019-03-28T05:56:27.177Z,29.77
2019-03-28T05:59:09.902Z,29.20
2019-03-28T06:01:30.351Z,32.80
2019-03-28T06:04:01.116Z,34.40
2019-03-28T06:06:32.055Z,37.70
2019-03-28T06:09:02.919Z,29.70
2019-03-28T06:11:33.715Z,33.43
2019-03-28T06:14:04.509Z,28.23
2019-03-28T06:16:35.623Z,30.40
2019-03-28T06:19:06.353Z,28.47
2019-03-28T06:21:39.486Z,27.83
2019-03-28T06:24:09.472Z,27.73
2019-03-28T06:26:40.207Z,22.97
2019-03-28T06:29:22.876Z,24.27
2019-03-28T06:31:54.547Z,23.57
2019-03-28T06:34:15.627Z,24.43
2019-03-28T06:36:46.362Z,28.80
2019-03-28T06:39:17.324Z,25.87
2019-03-28T06:41:48.663Z,25.87
2019-03-28T06:44:19.600Z,27.27
2019-03-28T06:46:50.504Z,30.13
2019-03-28T06:49:21.335Z,26.43
2019-03-28T06:51:52.165Z,24.10
2019-03-28T06:54:24.299Z,25.30
2019-03-28T06:56:55.200Z,29.07
2019-03-28T06:59:36.535Z,30.70
2019-03-28T07:01:58.378Z,32.50
2019-03-28T07:04:30.227Z,30.13
2019-03-28T07:07:01.004Z,30.30
2019-03-28T07:09:31.739Z,33.17
2019-03-28T07:12:02.482Z,34.50
2019-03-28T07:14:33.342Z,28.03
2019-03-28T07:17:04.070Z,33.13
2019-03-28T07:19:34.786Z,30.80
2019-03-28T07:22:05.584Z,28.10
2019-03-28T07:24:36.357Z,30.03
2019-03-28T07:27:08.552Z,28.73
2019-03-28T07:29:50.137Z,31.00
2019-03-28T07:32:11.895Z,31.50
2019-03-28T07:34:42.741Z,30.33
2019-03-28T07:37:17.030Z,31.50
2019-03-28T07:39:47.750Z,26.93
2019-03-28T07:42:18.464Z,26.80
2019-03-28T07:44:49.227Z,30.53
2019-03-28T07:47:20.182Z,30.00
2019-03-28T07:49:51.251Z,31.67
2019-03-28T07:52:22.037Z,28.43
2019-03-28T07:54:53.870Z,34.97
2019-03-28T07:57:24.593Z,33.53
2019-03-28T08:00:03.986Z,36.57
2019-03-28T08:02:28.101Z,34.73
2019-03-28T08:05:01.378Z,35.67
2019-03-28T08:07:44.013Z,32.07
2019-03-28T08:10:03.612Z,32.67
2019-03-28T08:12:34.401Z,33.73
2019-03-28T08:15:06.734Z,31.27
2019-03-28T08:17:37.711Z,31.77
2019-03-28T08:20:10.912Z,33.57
2019-03-28T08:22:43.013Z,32.30
2019-03-28T08:25:14.344Z,32.60
2019-03-28T08:27:45.060Z,33.57
2019-03-28T08:30:19.658Z,31.80
2019-03-28T08:32:48.498Z,33.20
2019-03-28T08:35:19.275Z,31.47
2019-03-28T08:37:50.077Z,35.97
2019-03-28T08:40:35.323Z,31.80
2019-03-28T08:43:06.211Z,31.87
2019-03-28T08:45:37.197Z,30.10
2019-03-28T08:48:07.881Z,34.07
2019-03-28T08:50:39.002Z,28.30
2019-03-28T08:53:09.832Z,34.83
2019-03-28T08:55:40.766Z,34.60
2019-03-28T08:58:11.509Z,32.13
2019-03-28T09:00:51.619Z,34.10
2019-03-28T09:03:14.744Z,36.53
2019-03-28T09:05:45.650Z,39.50
2019-03-28T09:08:16.365Z,32.87
2019-03-28T09:10:47.337Z,28.90
2019-03-28T09:13:18.068Z,31.73
2019-03-28T09:15:48.823Z,29.67
2019-03-28T09:18:22.266Z,33.47
2019-03-28T09:20:53.083Z,35.07
2019-03-28T09:23:23.802Z,32.80
2019-03-28T09:25:54.550Z,31.97
2019-03-28T09:28:25.430Z,28.90
2019-03-28T09:30:56.399Z,29.27
2019-03-28T09:33:28.009Z,30.67
2019-03-28T09:35:59.007Z,33.83
2019-03-28T09:38:29.780Z,30.87
2019-03-28T09:41:00.520Z,31.23
2019-03-28T09:43:31.238Z,29.30
2019-03-28T09:46:02.099Z,30.07
2019-03-28T09:48:33.037Z,28.00
2019-03-28T09:51:03.888Z,26.30
2019-03-28T09:53:34.697Z,26.93
2019-03-28T09:56:05.456Z,25.60
2019-03-28T09:58:36.250Z,28.10
2019-03-28T10:01:07.000Z,26.87
2019-03-28T10:03:38.129Z,28.00
2019-03-28T10:06:08.943Z,25.43
2019-03-28T10:08:39.716Z,26.73
2019-03-28T10:11:10.613Z,23.60
2019-03-28T10:13:41.330Z,24.63
2019-03-28T10:16:12.087Z,29.70
2019-03-28T10:18:42.871Z,24.90
2019-03-28T10:21:13.790Z,24.07
2019-03-28T10:23:44.625Z,26.63
2019-03-28T10:26:15.449Z,26.23
2019-03-28T10:28:48.744Z,22.50
2019-03-28T10:31:19.916Z,21.63
2019-03-28T10:33:50.773Z,19.80
2019-03-28T10:36:21.546Z,23.30
2019-03-28T10:38:55.599Z,23.23
2019-03-28T10:41:26.392Z,22.60
2019-03-28T10:43:57.127Z,22.90
2019-03-28T10:46:27.890Z,22.33
2019-03-28T10:48:58.641Z,22.33
2019-03-28T10:51:29.503Z,25.83
2019-03-28T10:54:00.333Z,23.23
2019-03-28T10:56:32.519Z,23.73
2019-03-28T10:59:03.301Z,22.10
2019-03-28T11:01:48.136Z,19.63
2019-03-28T11:04:07.162Z,27.57
2019-03-28T11:06:38.350Z,23.20
2019-03-28T11:09:12.137Z,23.03
2019-03-28T11:11:43.156Z,21.67
2019-03-28T11:14:14.003Z,21.97
2019-03-28T11:16:48.105Z,22.00
2019-03-28T11:19:17.694Z,20.33
2019-03-28T11:21:48.631Z,22.57
2019-03-28T11:24:19.330Z,19.73
2019-03-28T11:26:50.126Z,20.30
2019-03-28T11:29:21.076Z,18.00
2019-03-28T11:31:54.554Z,17.47
2019-03-28T11:34:25.299Z,22.33
2019-03-28T11:36:56.136Z,22.40
2019-03-28T11:39:26.858Z,20.10
2019-03-28T11:42:00.412Z,18.03
2019-03-28T11:44:29.914Z,19.83
2019-03-28T11:47:00.669Z,18.43
2019-03-28T11:49:34.154Z,17.20
2019-03-28T11:52:05.007Z,18.43
2019-03-28T11:54:35.796Z,17.80
2019-03-28T11:57:06.774Z,18.37
2019-03-28T11:59:37.571Z,19.17
2019-03-28T12:02:19.810Z,18.77
2019-03-28T12:04:40.651Z,16.93
2019-03-28T12:07:11.397Z,17.43
2019-03-28T12:09:44.536Z,17.40
2019-03-28T12:12:15.335Z,16.90
2019-03-28T12:14:46.044Z,16.87
2019-03-28T12:17:16.797Z,18.30
2019-03-28T12:19:47.514Z,14.37
2019-03-28T12:22:18.258Z,14.03
2019-03-28T12:24:49.015Z,14.13
2019-03-28T12:27:19.823Z,13.87
2019-03-28T12:29:50.762Z,14.57
2019-03-28T12:32:21.519Z,14.30
2019-03-28T12:34:52.250Z,13.07
2019-03-28T12:37:23.055Z,14.40
2019-03-28T12:39:54.004Z,10.60
2019-03-28T12:42:24.835Z,10.23
2019-03-28T12:44:57.216Z,12.17
2019-03-28T12:47:41.274Z,9.60
2019-03-28T12:50:01.963Z,9.33
2019-03-28T12:52:33.740Z,8.20
2019-03-28T12:55:04.881Z,7.63
2019-03-28T12:57:35.691Z,9.63
2019-03-28T13:00:07.864Z,7.93
2019-03-28T13:02:38.702Z,8.10
2019-03-28T13:05:11.420Z,8.93
2019-03-28T13:07:42.207Z,6.40
2019-03-28T13:10:13.928Z,7.67
2019-03-28T13:12:44.913Z,7.10
2019-03-28T13:15:15.724Z,7.60
2019-03-28T13:17:46.557Z,8.10
2019-03-28T13:20:17.382Z,6.57
2019-03-28T13:22:48.152Z,6.93
2019-03-28T13:25:19.014Z,5.33
2019-03-28T13:27:49.699Z,5.27
2019-03-28T13:30:20.770Z,9.43
2019-03-28T13:32:51.439Z,7.47
2019-03-28T13:35:22.049Z,7.33
2019-03-28T13:37:52.731Z,6.00
2019-03-28T13:40:24.002Z,6.77
2019-03-28T13:42:54.692Z,8.00
2019-03-28T13:45:26.684Z,6.80
2019-03-28T13:47:57.292Z,6.57
2019-03-28T13:50:27.875Z,9.63
2019-03-28T13:52:58.559Z,8.00
2019-03-28T13:55:29.147Z,4.93
2019-03-28T13:57:59.820Z,7.40
2019-03-28T14:00:37.664Z,7.23
2019-03-28T14:03:08.745Z,7.53
2019-03-28T14:05:39.336Z,5.87
2019-03-28T14:08:10.222Z,6.50
2019-03-28T14:10:41.405Z,6.13
2019-03-28T14:13:11.968Z,6.03
2019-03-28T14:15:42.618Z,6.00
2019-03-28T14:18:13.223Z,8.60
2019-03-28T14:20:43.827Z,8.00
2019-03-28T14:23:14.516Z,6.70
2019-03-28T14:25:45.270Z,6.00
2019-03-28T14:28:15.875Z,5.87
2019-03-28T14:30:49.313Z,7.03
2019-03-28T14:33:20.162Z,7.63
2019-03-28T14:35:50.728Z,7.00
2019-03-28T14:38:21.467Z,7.57
2019-03-28T14:40:52.163Z,8.80
2019-03-28T14:43:22.957Z,8.77
2019-03-28T14:45:53.631Z,7.13
2019-03-28T14:48:24.300Z,7.80
2019-03-28T14:50:55.119Z,7.53
2019-03-28T14:53:25.777Z,7.87
2019-03-28T14:55:57.759Z,7.57
2019-03-28T14:58:29.809Z,9.20
2019-03-28T15:01:00.473Z,8.00
2019-03-28T15:03:31.315Z,8.37
2019-03-28T15:06:01.971Z,8.00
2019-03-28T15:08:34.929Z,7.67
2019-03-28T15:11:05.918Z,8.10
2019-03-28T15:13:55.376Z,8.10
2019-03-28T15:16:27.472Z,9.47
2019-03-28T15:18:58.174Z,7.80
2019-03-28T15:21:40.578Z,8.43
2019-03-28T15:24:11.304Z,8.97
2019-03-28T15:26:41.973Z,9.13
2019-03-28T15:29:12.822Z,9.93
2019-03-28T15:31:45.350Z,9.83
2019-03-28T15:34:15.978Z,9.07
2019-03-28T15:36:46.779Z,10.53
2019-03-28T15:39:17.468Z,9.50
2019-03-28T15:41:48.045Z,8.73
2019-03-28T15:44:18.905Z,7.60
2019-03-28T15:46:49.481Z,6.40
2019-03-28T15:49:20.094Z,6.93
2019-03-28T15:51:53.297Z,6.63
2019-03-28T15:54:23.940Z,7.10
2019-03-28T15:56:54.533Z,6.80
2019-03-28T15:59:25.205Z,5.33
2019-03-28T16:01:59.844Z,7.20
2019-03-28T16:04:29.824Z,7.20
2019-03-28T16:07:00.490Z,5.77
2019-03-28T16:09:49.893Z,6.13
2019-03-28T16:12:20.563Z,5.73
2019-03-28T16:14:51.248Z,6.03
2019-03-28T16:17:21.930Z,5.80
2019-03-28T16:19:52.718Z,6.10
2019-03-28T16:22:23.375Z,8.90
2019-03-28T16:24:53.992Z,8.30
2019-03-28T16:27:25.009Z,7.50
2019-03-28T16:29:55.617Z,8.40
2019-03-28T16:32:26.281Z,9.73
2019-03-28T16:34:58.670Z,9.17
2019-03-28T16:37:29.293Z,9.37
2019-03-28T16:39:59.971Z,8.10
2019-03-28T16:42:30.653Z,10.23
2019-03-28T16:45:01.239Z,9.23
2019-03-28T16:47:31.826Z,8.67
2019-03-28T16:50:03.155Z,9.00
2019-03-28T16:52:33.879Z,8.90
2019-03-28T16:55:04.953Z,9.00
2019-03-28T16:57:35.623Z,8.10
2019-03-28T17:00:10.141Z,7.27
2019-03-28T17:02:40.926Z,9.00
2019-03-28T17:05:15.690Z,9.47
2019-03-28T17:07:47.356Z,8.90
2019-03-28T17:10:41.534Z,8.10
2019-03-28T17:13:12.381Z,8.30
2019-03-28T17:15:43.030Z,8.47
2019-03-28T17:18:14.187Z,8.37
2019-03-28T17:20:44.884Z,9.67
2019-03-28T17:23:15.592Z,7.57
2019-03-28T17:25:46.428Z,10.07
2019-03-28T17:28:17.032Z,10.50
2019-03-28T17:30:47.795Z,8.90
2019-03-28T17:33:18.371Z,9.10
2019-03-28T17:35:49.206Z,9.40
2019-03-28T17:38:20.054Z,9.53
2019-03-28T17:40:50.643Z,9.10
2019-03-28T17:43:21.218Z,10.67
2019-03-28T17:45:52.859Z,10.60
2019-03-28T17:48:23.462Z,9.40
2019-03-28T17:50:54.092Z,11.40
2019-03-28T17:53:24.725Z,9.80
2019-03-28T17:55:55.604Z,9.90
2019-03-28T17:58:26.388Z,9.80
2019-03-28T18:00:57.259Z,13.93
2019-03-28T18:03:31.332Z,12.50
2019-03-28T18:06:00.457Z,11.93
2019-03-28T18:08:34.137Z,12.20
2019-03-28T18:11:04.766Z,11.40
2019-03-28T18:13:35.426Z,12.47
2019-03-28T18:16:06.145Z,12.70
2019-03-28T18:18:37.074Z,12.87
2019-03-28T18:21:07.767Z,14.23
2019-03-28T18:23:38.431Z,12.43
2019-03-28T18:26:09.229Z,14.17
2019-03-28T18:28:39.791Z,15.37
2019-03-28T18:31:11.627Z,15.00
2019-03-28T18:33:43.705Z,14.87
2019-03-28T18:36:14.318Z,15.17
2019-03-28T18:38:45.308Z,15.03
2019-03-28T18:41:15.954Z,14.60
2019-03-28T18:43:46.537Z,14.47
2019-03-28T18:46:17.381Z,15.60
2019-03-28T18:48:48.214Z,15.10
2019-03-28T18:51:18.873Z,15.60
2019-03-28T18:53:49.623Z,16.43
2019-03-28T18:56:20.337Z,16.63
2019-03-28T18:58:50.998Z,18.07
2019-03-28T19:01:21.681Z,18.63
2019-03-28T19:03:52.311Z,18.03
2019-03-28T19:06:23.017Z,18.30
2019-03-28T19:08:53.837Z,18.40
2019-03-28T19:11:24.657Z,18.43
2019-03-28T19:13:55.263Z,19.27
2019-03-28T19:16:25.966Z,19.43
2019-03-28T19:18:59.785Z,18.57
2019-03-28T19:21:29.101Z,19.00
2019-03-28T19:23:59.881Z,18.80
2019-03-28T19:26:30.487Z,19.30
2019-03-28T19:29:01.142Z,19.20
2019-03-28T19:31:31.786Z,18.27
2019-03-28T19:34:02.440Z,17.97
2019-03-28T19:36:34.512Z,18.70
2019-03-28T19:39:08.762Z,21.27
2019-03-28T19:41:38.993Z,21.33
2019-03-28T19:44:09.717Z,19.63
2019-03-28T19:46:40.873Z,21.33
2019-03-28T19:49:11.489Z,25.37
2019-03-28T19:51:42.340Z,24.13
2019-03-28T19:54:13.263Z,24.27
2019-03-28T19:56:43.927Z,26.57
2019-03-28T19:59:14.966Z,25.57
2019-03-28T20:01:45.770Z,26.17
2019-03-28T20:04:16.461Z,26.03
2019-03-28T20:06:48.806Z,31.10
2019-03-28T20:09:19.437Z,31.13
2019-03-28T20:11:50.106Z,29.43
2019-03-28T20:14:23.800Z,30.30
2019-03-28T20:16:54.482Z,30.30
2019-03-28T20:19:25.209Z,30.70
2019-03-28T20:21:59.674Z,31.30
2019-03-28T20:24:31.467Z,30.60
2019-03-28T20:27:02.291Z,28.63
2019-03-28T20:29:33.534Z,30.30
2019-03-28T20:32:04.468Z,29.40
2019-03-28T20:34:37.582Z,30.30
2019-03-28T20:37:11.640Z,33.57
2019-03-28T20:39:42.510Z,32.77
2019-03-28T20:42:13.355Z,29.93
2019-03-28T20:44:44.693Z,28.77
2019-03-28T20:47:15.414Z,27.13
2019-03-28T20:49:46.799Z,26.20
2019-03-28T20:52:19.059Z,28.47
2019-03-28T20:54:52.452Z,29.17
2019-03-28T20:57:26.320Z,32.33
2019-03-28T20:59:57.030Z,33.77
2019-03-28T21:02:27.789Z,31.83
2019-03-28T21:04:58.571Z,32.30
2019-03-28T21:07:31.149Z,28.33
2019-03-28T21:10:01.744Z,28.03
2019-03-28T21:12:33.245Z,26.97
2019-03-28T21:15:04.594Z,27.20
2019-03-28T21:17:35.363Z,27.90
2019-03-28T21:20:06.357Z,32.20
2019-03-28T21:22:37.337Z,30.83
2019-03-28T21:25:07.985Z,29.53
2019-03-28T21:27:38.620Z,30.70
2019-03-28T21:30:12.108Z,29.10
2019-03-28T21:32:54.826Z,27.73
2019-03-28T21:35:15.050Z,32.17
2019-03-28T21:37:45.765Z,35.03
2019-03-28T21:40:16.756Z,32.47
2019-03-28T21:42:47.470Z,31.37
2019-03-28T21:45:18.151Z,32.90
2019-03-28T21:47:48.763Z,32.13
2019-03-28T21:50:19.531Z,33.20
2019-03-28T21:52:50.213Z,31.83
2019-03-28T21:55:20.999Z,31.73
2019-03-28T21:57:51.820Z,32.80
2019-03-28T22:00:22.590Z,33.97
2019-03-28T22:02:53.251Z,34.17
2019-03-28T22:05:23.839Z,36.30
2019-03-28T22:07:54.467Z,34.00
2019-03-28T22:10:25.270Z,35.03
2019-03-28T22:12:56.083Z,34.77
2019-03-28T22:15:26.897Z,32.70
2019-03-28T22:17:57.521Z,33.30
2019-03-28T22:20:28.162Z,33.20
2019-03-28T22:22:58.945Z,33.23
2019-03-28T22:25:29.623Z,33.70
2019-03-28T22:28:00.394Z,36.03
2019-03-28T22:30:31.065Z,37.10
2019-03-28T22:33:01.730Z,37.10
2019-03-28T22:35:32.470Z,34.20
2019-03-28T22:38:03.209Z,39.10
2019-03-28T22:40:34.201Z,36.87
2019-03-28T22:43:05.002Z,35.17
2019-03-28T22:45:35.623Z,39.80
2019-03-28T22:48:11.043Z,35.13
2019-03-28T22:50:39.082Z,35.27
2019-03-28T22:53:09.779Z,35.57
2019-03-28T22:55:40.418Z,34.67
2019-03-28T22:58:11.207Z,35.23
2019-03-28T23:00:45.699Z,37.17
2019-03-28T23:03:19.144Z,38.43
2019-03-28T23:05:49.895Z,37.27
2019-03-28T23:08:23.373Z,39.63
2019-03-28T23:10:54.287Z,37.73
2019-03-28T23:13:24.968Z,37.77
2019-03-28T23:15:55.606Z,33.10
2019-03-28T23:18:29.429Z,37.87
2019-03-28T23:21:00.032Z,39.63
2019-03-28T23:23:31.976Z,36.93
2019-03-28T23:26:02.627Z,39.70
2019-03-28T23:28:33.419Z,39.40
2019-03-28T23:31:04.033Z,38.37
2019-03-28T23:33:34.800Z,40.33
2019-03-28T23:36:06.823Z,41.93
2019-03-28T23:38:37.663Z,40.33
2019-03-28T23:41:10.672Z,39.97
2019-03-28T23:43:41.454Z,44.50
2019-03-28T23:46:14.129Z,39.87
2019-03-28T23:48:44.820Z,41.27
2019-03-28T23:51:15.436Z,39.00
2019-03-28T23:53:46.129Z,40.50
2019-03-28T23:56:16.741Z,37.30
2019-03-28T23:58:47.356Z,39.77
